createdAt,value
2017-07-29T00:00:32.001Z,100
2017-07-29T00:10:46.012Z,100
2017-07-29T00:21:00.420Z,100
2017-07-29T00:31:14.659Z,100
2017-07-29T00:41:29.992Z,100
2017-07-29T00:51:44.277Z,100
2017-07-29T01:01:58.506Z,100
2017-07-29T01:12:13.324Z,100
2017-07-29T01:22:28.632Z,100
2017-07-29T01:32:42.706Z,100
2017-07-29T01:42:57.361Z,100
2017-07-29T01:53:11.633Z,100
2017-07-29T02:03:26.469Z,100
2017-07-29T02:13:41.296Z,100
2017-07-29T02:23:56.855Z,100
2017-07-29T02:34:12.319Z,100
2017-07-29T02:44:27.464Z,100
2017-07-29T02:54:42.416Z,100
2017-07-29T03:04:56.737Z,100
2017-07-29T03:15:11.672Z,100
2017-07-29T03:25:26.051Z,100
2017-07-29T03:35:40.403Z,100
2017-07-29T03:45:56.028Z,100
2017-07-29T03:56:11.714Z,100
2017-07-29T04:06:26.645Z,100
2017-07-29T04:16:41.851Z,100
2017-07-29T04:26:55.577Z,100
2017-07-29T04:37:10.385Z,100
2017-07-29T04:47:24.279Z,100
2017-07-29T04:57:39.681Z,100
2017-07-29T05:07:53.618Z,100
2017-07-29T05:18:07.462Z,100
2017-07-29T05:28:21.352Z,100
2017-07-29T05:38:36.244Z,99.6
2017-07-29T05:48:51.376Z,99.1
2017-07-29T05:59:06.630Z,99.5
2017-07-29T06:09:20.723Z,97.6
2017-07-29T06:19:36.351Z,96.9
2017-07-29T06:29:51.121Z,96.4
2017-07-29T06:40:05.225Z,95.6
2017-07-29T06:50:20.661Z,95.8
2017-07-29T07:00:36.007Z,95.1
2017-07-29T07:10:50.813Z,92.6
2017-07-29T07:21:04.981Z,91.8
2017-07-29T07:31:19.780Z,92.3
2017-07-29T07:41:33.999Z,93
2017-07-29T07:51:48.805Z,92
2017-07-29T08:02:03.753Z,92.9
2017-07-29T08:12:18.513Z,92.9
2017-07-29T08:22:32.758Z,92.6
2017-07-29T08:32:47.641Z,92.8
2017-07-29T08:43:03.147Z,92.8
2017-07-29T08:53:18.652Z,93.4
2017-07-29T09:03:33.061Z,93.7
2017-07-29T09:13:48.207Z,92.2
2017-07-29T09:24:04.040Z,92.5
2017-07-29T09:34:18.097Z,92.5
2017-07-29T09:44:32.734Z,92.9
2017-07-29T09:54:46.947Z,93.2
2017-07-29T10:05:02.159Z,93.5
2017-07-29T10:15:16.645Z,91.5
2017-07-29T10:25:31.431Z,90.7
2017-07-29T10:35:45.633Z,91.3
2017-07-29T10:46:01.310Z,90.9
2017-07-29T10:56:16.668Z,92.7
2017-07-29T11:06:31.698Z,92.5
2017-07-29T11:16:46.761Z,91.3
2017-07-29T11:27:00.804Z,90.2
2017-07-29T11:37:15.814Z,91.6
2017-07-29T11:47:30.556Z,91.5
2017-07-29T11:57:44.372Z,88.4
2017-07-29T12:07:59.601Z,86
2017-07-29T12:18:13.573Z,87.1
2017-07-29T12:28:28.314Z,87.4
2017-07-29T12:38:42.542Z,88.8
2017-07-29T12:48:56.256Z,88.8
2017-07-29T12:59:11.867Z,88.9
2017-07-29T13:09:25.758Z,89.6
2017-07-29T13:19:40.182Z,88.1
2017-07-29T13:29:55.372Z,86.5
2017-07-29T13:40:09.882Z,87
2017-07-29T13:50:25.001Z,85.8
2017-07-29T14:00:39.184Z,84.7
2017-07-29T14:10:53.814Z,83.9
2017-07-29T14:21:08.092Z,83.3
2017-07-29T14:31:22.053Z,83.8
2017-07-29T14:41:37.058Z,85.5
2017-07-29T14:51:51.346Z,85.2
2017-07-29T15:02:05.076Z,85.1
2017-07-29T15:12:20.862Z,85.1
2017-07-29T15:22:35.472Z,85.6
2017-07-29T15:32:49.729Z,86
2017-07-29T15:43:04.460Z,85.3
2017-07-29T15:53:19.821Z,82.3
2017-07-29T16:03:35.234Z,83.8
2017-07-29T16:13:49.052Z,84.5
2017-07-29T16:24:03.630Z,85.4
2017-07-29T16:34:19.073Z,86.1
2017-07-29T16:44:33.078Z,87.2
2017-07-29T16:54:48.114Z,85.7
2017-07-29T17:05:02.470Z,85.3
2017-07-29T17:15:16.885Z,86.8
2017-07-29T17:25:31.509Z,89.3
2017-07-29T17:35:47.178Z,90
2017-07-29T17:46:01.575Z,90.3
2017-07-29T17:56:17.439Z,90.3
2017-07-29T18:06:33.077Z,91
2017-07-29T18:16:48.808Z,91.7
2017-07-29T18:27:03.207Z,93.1
2017-07-29T18:37:17.618Z,94.3
2017-07-29T18:47:33.074Z,95.2
2017-07-29T18:57:46.855Z,95.5
2017-07-29T19:08:02.082Z,96.5
2017-07-29T19:18:16.851Z,97
2017-07-29T19:28:32.421Z,96.9
2017-07-29T19:38:46.713Z,97.6
2017-07-29T19:49:01.611Z,98.4
2017-07-29T19:59:16.248Z,98.4
2017-07-29T20:09:31.040Z,98
2017-07-29T20:19:46.529Z,99.5
2017-07-29T20:30:01.715Z,99.6
2017-07-29T20:40:16.446Z,99.9
2017-07-29T20:50:31.120Z,99.6
2017-07-29T21:00:45.616Z,99.2
2017-07-29T21:10:59.900Z,100
2017-07-29T21:21:14.184Z,100
2017-07-29T21:31:28.417Z,100
2017-07-29T21:41:42.368Z,100
2017-07-29T21:51:57.140Z,99.2
2017-07-29T22:02:11.764Z,99.5
2017-07-29T22:12:26.530Z,99.9
2017-07-29T22:22:42.260Z,100
2017-07-29T22:32:57.198Z,100
2017-07-29T22:43:12.008Z,100
2017-07-29T22:53:26.507Z,100
2017-07-29T23:03:41.300Z,100
2017-07-29T23:13:56.565Z,100
2017-07-29T23:24:11.006Z,100
2017-07-29T23:34:26.564Z,100
2017-07-29T23:44:41.133Z,100
2017-07-29T23:54:55.530Z,100
